Time;durP1;ratioP1;P1;durP2;ratioP2;P2;SDS_P1;SDS_P2;PMS_P1;PMS_P2;Temp;Humidity;BMP_temperature;BMP_pressure;BME280_temperature;BME280_humidity;BME280_pressure;Samples;Min_cycle;Max_cycle;Signal;HPM_P1;HPM_P2
2022/01/27 00:01:05;;;;;;;6.07;4.57;;;-0.90;1.40;;;-0.34;100.00;96468.91;646898;216;31648;-76
2022/01/27 00:03:50;;;;;;;8.98;3.53;;;-0.90;1.40;;;-0.35;100.00;96463.90;646294;216;33321;-76
2022/01/27 00:06:25;;;;;;;11.17;5.37;;;-0.80;1.40;;;-0.26;100.00;96460.67;640734;216;31716;-75
2022/01/27 00:11:44;;;;;;;6.20;3.70;;;-0.80;1.40;;;-0.06;100.00;96450.06;646711;212;31559;-76
2022/01/27 00:14:23;;;;;;;5.90;3.80;;;-0.80;1.40;;;-0.13;100.00;96451.94;643869;214;31569;-75
2022/01/27 00:17:13;;;;;;;8.10;4.40;;;-0.80;1.40;;;-0.19;100.00;96451.02;620241;222;31939;-75
2022/01/27 00:19:46;;;;;;;4.60;3.40;;;-0.80;1.40;;;-0.17;100.00;96457.49;646197;215;31607;-76
2022/01/27 00:22:28;;;;;;;9.10;4.85;;;-0.80;1.40;;;-0.22;100.00;96453.36;646834;216;31587;-75
2022/01/27 00:25:11;;;;;;;4.95;4.40;;;-0.80;1.40;;;-0.08;100.00;96452.83;647266;216;31762;-76
2022/01/27 00:27:53;;;;;;;6.80;3.60;;;-0.80;1.40;;;-0.13;100.00;96454.88;616494;224;31933;-76
2022/01/27 00:30:34;;;;;;;5.00;3.62;;;-0.80;1.40;;;-0.23;100.00;96455.36;648958;212;31869;-75
2022/01/27 00:35:51;;;;;;;7.65;5.65;;;-0.80;1.40;;;-0.24;100.00;96443.41;646323;216;31675;-76
2022/01/27 00:38:32;;;;;;;8.57;4.90;;;-0.90;1.40;;;-0.28;100.00;96448.33;646754;216;31725;-76
2022/01/27 00:41:14;;;;;;;5.72;4.22;;;-0.90;1.40;;;-0.34;100.00;96438.12;646910;216;31651;-76
2022/01/27 00:43:56;;;;;;;6.40;3.83;;;-0.90;1.40;;;-0.44;100.00;96450.40;647449;216;31662;-75
2022/01/27 00:46:37;;;;;;;7.05;4.45;;;-1.00;1.40;;;-0.58;100.00;96459.33;647553;216;31765;-76
2022/01/27 00:49:19;;;;;;;5.82;5.03;;;-1.10;1.40;;;-0.70;100.00;96454.30;646378;216;31588;-75
2022/01/27 00:52:03;;;;;;;7.45;3.37;;;-1.10;1.40;;;-0.72;100.00;96454.21;647390;216;31636;-76
2022/01/27 00:54:45;;;;;;;8.07;4.90;;;-1.20;1.40;;;-0.73;100.00;96460.80;646141;216;31634;-76
2022/01/27 00:57:35;;;;;;;5.40;4.18;;;-1.30;1.40;;;-0.65;100.00;96464.02;647011;216;31961;-76
2022/01/27 01:00:11;;;;;;;8.60;5.10;;;-1.20;1.40;;;-0.59;100.00;96466.33;647852;216;31532;-76
2022/01/27 01:03:00;;;;;;;5.82;4.05;;;-1.20;1.40;;;-0.54;100.00;96457.45;619220;226;31886;-76
2022/01/27 01:08:05;;;;;;;9.57;6.25;;;-1.20;1.40;;;-0.52;100.00;96459.55;648458;216;31610;-75
2022/01/27 01:16:06;;;;;;;10.75;4.30;;;-1.10;1.40;;;-0.52;100.00;96447.41;647783;212;31613;-76
2022/01/27 01:18:58;;;;;;;3.00;2.80;;;-1.10;1.40;;;-0.48;100.00;96443.33;648126;212;31530;-76
2022/01/27 01:22:00;;;;;;;9.80;6.40;;;-1.10;1.40;;;-0.51;100.00;96436.82;647062;212;31576;-75
2022/01/27 01:45:24;;;;;;;4.67;3.43;;;-1.70;1.40;;;-1.24;100.00;96428.85;636123;220;31949;-75
2022/01/27 01:48:08;;;;;;;12.57;6.00;;;-1.80;1.40;;;-1.28;100.00;96438.82;646715;216;31623;-75
2022/01/27 01:50:50;;;;;;;3.95;3.65;;;-1.80;1.40;;;-1.34;100.00;96447.61;647004;216;31607;-75
2022/01/27 01:53:32;;;;;;;6.62;3.97;;;-1.80;1.40;;;-1.38;100.00;96451.29;646673;216;31828;-76
2022/01/27 01:56:13;;;;;;;8.98;5.07;;;-1.90;1.40;;;-1.30;100.00;96442.69;646281;216;31652;-75
2022/01/27 01:58:55;;;;;;;4.37;3.97;;;-1.80;1.40;;;-1.28;100.00;96430.91;647106;216;31641;-75
2022/01/27 02:01:37;;;;;;;6.85;4.55;;;-1.80;1.40;;;-1.23;100.00;96441.11;647022;216;31626;-75
2022/01/27 02:04:19;;;;;;;3.58;2.45;;;-1.80;1.40;;;-1.22;100.00;96436.70;620926;226;32436;-75
2022/01/27 02:07:03;;;;;;;3.45;2.37;;;-1.70;1.40;;;-1.17;100.00;96439.66;637835;212;31698;-76
2022/01/27 02:10:05;;;;;;;4.45;4.12;;;-1.60;1.40;;;-1.06;100.00;96433.94;644907;212;31652;-75
2022/01/27 02:18:08;;;;;;;3.83;2.50;;;-1.50;1.40;;;-0.85;100.00;96447.94;647565;212;31721;-75
2022/01/27 02:20:52;;;;;;;5.22;3.55;;;-1.40;1.40;;;-0.79;100.00;96442.10;648076;212;31598;-75
2022/01/27 02:23:33;;;;;;;4.80;3.60;;;-1.40;1.40;;;-0.86;100.00;96435.74;646990;216;31645;-75
2022/01/27 02:26:15;;;;;;;5.68;5.03;;;-1.50;1.40;;;-0.92;100.00;96424.97;646698;216;31540;-75
2022/01/27 02:28:57;;;;;;;4.50;3.30;;;-1.60;1.40;;;-0.88;100.00;96421.16;646806;216;31577;-75
2022/01/27 02:31:39;;;;;;;3.30;2.93;;;-1.60;1.40;;;-0.89;100.00;96414.88;648375;216;31768;-75
2022/01/27 02:35:51;;;;;;;5.25;3.50;;;-1.70;1.40;;;-1.02;100.00;96415.78;619117;222;32010;-75
2022/01/27 02:38:33;;;;;;;7.12;5.55;;;-1.70;1.40;;;-1.20;100.00;96409.18;647483;212;31518;-75
2022/01/27 02:41:16;;;;;;;7.10;2.80;;;-1.70;1.40;;;-1.28;100.00;96411.44;647772;216;31590;-75
2022/01/27 02:43:58;;;;;;;4.40;2.90;;;-1.80;1.40;;;-1.30;100.00;96406.53;647878;216;31557;-75
2022/01/27 02:46:42;;;;;;;5.00;3.00;;;-1.80;1.40;;;-1.24;100.00;96406.38;648695;216;31575;-75
2022/01/27 02:49:26;;;;;;;8.88;3.22;;;-1.80;1.40;;;-1.30;100.00;96404.52;646089;216;32248;-76
2022/01/27 02:52:08;;;;;;;6.50;4.62;;;-1.80;1.40;;;-1.24;100.00;96402.45;646572;212;32167;-75
2022/01/27 02:54:49;;;;;;;4.85;4.40;;;-1.80;1.40;;;-1.22;100.00;96414.48;618553;226;31938;-75
2022/01/27 02:57:34;;;;;;;6.60;4.12;;;-1.80;1.40;;;-1.11;100.00;96408.16;646721;212;31811;-75
2022/01/27 03:00:16;;;;;;;3.42;2.30;;;-1.80;1.40;;;-1.17;100.00;96403.68;646640;212;31542;-75
2022/01/27 03:02:58;;;;;;;3.15;2.92;;;-1.80;1.40;;;-1.22;100.00;96398.08;647092;212;32227;-76
2022/01/27 03:05:40;;;;;;;4.87;4.00;;;-1.80;1.40;;;-1.19;100.00;96394.46;644771;212;32165;-76
2022/01/27 03:08:22;;;;;;;4.75;4.32;;;-1.80;1.40;;;-1.21;100.00;96386.55;621323;222;31945;-75
2022/01/27 03:11:03;;;;;;;4.65;3.45;;;-1.90;1.40;;;-1.37;100.00;96383.83;647366;216;31556;-76
2022/01/27 03:13:45;;;;;;;7.95;2.62;;;-1.90;1.40;;;-1.35;100.00;96383.95;646834;212;31523;-76
2022/01/27 03:16:26;;;;;;;3.70;2.00;;;-1.90;1.40;;;-1.37;100.00;96374.20;648216;216;31557;-76
2022/01/27 03:19:09;;;;;;;3.80;2.80;;;-1.90;1.40;;;-1.33;100.00;96368.44;647079;216;31646;-76
2022/01/27 03:21:50;;;;;;;4.53;4.12;;;-1.90;1.40;;;-1.30;100.00;96370.72;646269;216;42200;-75
2022/01/27 03:24:32;;;;;;;5.12;3.25;;;-1.80;1.40;;;-1.29;100.00;96362.77;643348;217;42849;-75
2022/01/27 03:27:19;;;;;;;7.53;3.72;;;-1.90;1.40;;;-1.34;100.00;96358.42;646940;216;31603;-75
2022/01/27 03:29:55;;;;;;;7.55;2.42;;;-1.90;1.40;;;-1.44;100.00;96357.63;646909;216;31632;-76
2022/01/27 03:32:38;;;;;;;5.95;3.40;;;-1.90;1.40;;;-1.31;100.00;96367.47;621121;226;31858;-76
2022/01/27 03:35:52;;;;;;;5.62;4.82;;;-1.90;1.40;;;-1.26;100.00;96366.27;648146;216;31627;-75
2022/01/27 03:38:33;;;;;;;4.82;4.30;;;-1.80;1.40;;;-1.29;100.00;96368.64;647421;216;31692;-75
2022/01/27 03:41:19;;;;;;;3.47;2.70;;;-1.80;1.40;;;-1.34;100.00;96367.55;646691;216;31689;-75
2022/01/27 03:44:03;;;;;;;7.60;4.50;;;-1.80;1.40;;;-1.36;100.00;96363.12;647194;216;31657;-76
2022/01/27 03:46:53;;;;;;;4.37;4.07;;;-1.90;1.40;;;-1.33;100.00;96360.49;641612;217;32122;-75
2022/01/27 03:49:33;;;;;;;6.10;2.80;;;-1.90;1.40;;;-1.37;100.00;96357.95;647890;216;31696;-76
2022/01/27 03:52:15;;;;;;;3.80;2.67;;;-1.80;1.40;;;-1.41;100.00;96361.19;647954;216;31622;-75
2022/01/27 03:54:56;;;;;;;5.30;3.10;;;-1.90;1.40;;;-1.42;100.00;96363.65;647748;212;42183;-76
2022/01/27 03:57:38;;;;;;;5.30;3.45;;;-2.00;1.40;;;-1.48;100.00;96372.59;647778;216;31587;-76
2022/01/27 04:00:22;;;;;;;3.72;3.42;;;-2.00;1.40;;;-1.48;100.00;96374.00;646630;216;31963;-76
2022/01/27 04:03:07;;;;;;;4.75;3.33;;;-2.00;1.40;;;-1.58;100.00;96381.20;620076;226;32610;-76
2022/01/27 04:05:56;;;;;;;5.40;3.17;;;-2.10;1.40;;;-1.43;100.00;96384.55;646081;216;32390;-72
2022/01/27 04:08:39;;;;;;;5.17;3.70;;;-2.00;1.40;;;-1.36;100.00;96389.03;647485;216;31561;-76
2022/01/27 04:11:21;;;;;;;5.20;2.80;;;-2.00;1.40;;;-1.44;100.00;96380.85;647068;212;31569;-75
2022/01/27 04:14:03;;;;;;;5.00;3.85;;;-2.00;1.40;;;-1.58;100.00;96365.16;645394;212;31576;-75
2022/01/27 04:16:45;;;;;;;2.35;2.15;;;-2.10;1.40;;;-1.59;100.00;96356.11;621815;222;32116;-75
2022/01/27 04:19:27;;;;;;;4.45;2.40;;;-2.10;1.40;;;-1.65;100.00;96348.37;647445;212;31566;-76
2022/01/27 04:22:08;;;;;;;4.65;4.35;;;-2.30;1.40;;;-1.82;100.00;96347.70;643097;216;42126;-76
2022/01/27 04:24:50;;;;;;;5.55;3.25;;;-2.30;1.40;;;-1.88;100.00;96351.99;647654;216;31569;-76
2022/01/27 04:27:35;;;;;;;4.53;2.97;;;-2.40;1.40;;;-1.83;100.00;96348.95;647442;216;31530;-75
2022/01/27 04:30:17;;;;;;;2.92;2.65;;;-2.40;1.40;;;-2.04;100.00;96339.04;618990;222;31913;-76
2022/01/27 04:33:00;;;;;;;6.43;4.70;;;-2.50;1.40;;;-1.98;100.00;96335.78;632208;222;31773;-75
2022/01/27 04:35:51;;;;;;;4.57;3.67;;;-2.50;1.40;;;-2.07;100.00;96333.53;646987;212;31968;-75
2022/01/27 04:38:39;;;;;;;3.90;2.80;;;-2.60;1.40;;;-2.02;100.00;96334.03;648202;212;31657;-75
2022/01/27 04:41:26;;;;;;;7.05;3.35;;;-2.50;1.40;;;-2.07;100.00;96331.78;647438;216;31559;-76
2022/01/27 04:44:12;;;;;;;6.20;4.40;;;-2.50;1.40;;;-2.13;100.00;96328.44;646862;212;31558;-75
2022/01/27 04:49:39;;;;;;;3.80;2.47;;;-2.60;1.40;;;-2.22;100.00;96323.60;648044;216;32164;-76
2022/01/27 04:52:21;;;;;;;3.90;2.40;;;-2.60;1.40;;;-2.18;100.00;96324.23;647559;212;31663;-76
2022/01/27 04:57:40;;;;;;;3.85;3.42;;;-2.60;1.40;;;-2.21;100.00;96313.72;647187;216;31568;-75
2022/01/27 05:00:18;;;;;;;5.10;2.37;;;-2.60;1.40;;;-2.24;100.00;96306.81;648792;212;31550;-75
2022/01/27 05:03:02;;;;;;;4.35;3.35;;;-2.70;1.40;;;-2.25;100.00;96304.39;646923;212;31574;-75
2022/01/27 05:05:42;;;;;;;3.47;2.33;;;-2.70;1.40;;;-2.32;100.00;96302.58;643410;212;31761;-76
2022/01/27 05:08:24;;;;;;;5.25;4.07;;;-2.80;1.40;;;-2.31;100.00;96303.95;647871;212;31672;-76
2022/01/27 05:11:13;;;;;;;4.60;2.00;;;-2.80;1.40;;;-2.38;100.00;96302.91;646845;216;31577;-76
2022/01/27 05:14:07;;;;;;;4.00;1.80;;;-2.90;1.40;;;-2.44;100.00;96309.47;618736;222;31877;-76
2022/01/27 05:16:43;;;;;;;4.90;2.80;;;-2.90;1.40;;;-2.53;100.00;96298.70;646728;216;31703;-75
2022/01/27 05:19:25;;;;;;;4.77;3.10;;;-3.00;1.40;;;-2.51;100.00;96299.34;648243;216;42205;-75
2022/01/27 05:22:07;;;;;;;3.15;2.95;;;-3.00;1.40;;;-2.56;100.00;96292.84;647963;216;31593;-76
2022/01/27 05:24:53;;;;;;;3.03;1.70;;;-3.00;1.40;;;-2.53;100.00;96295.97;648147;216;31580;-76
2022/01/27 05:27:35;;;;;;;6.40;2.25;;;-3.00;1.40;;;-2.60;100.00;96292.52;646995;212;31528;-76
2022/01/27 05:30:17;;;;;;;4.45;3.50;;;-3.00;1.40;;;-2.63;100.00;96286.80;647837;216;31571;-75
2022/01/27 05:32:58;;;;;;;4.25;3.85;;;-3.00;1.40;;;-2.63;100.00;96281.80;646484;215;31589;-76
2022/01/27 05:35:57;;;;;;;5.30;2.40;;;-3.10;1.40;;;-2.69;100.00;96274.88;646511;216;32196;-75
2022/01/27 05:38:44;;;;;;;3.12;1.60;;;-3.10;1.40;;;-2.65;100.00;96272.91;647078;212;31567;-76
2022/01/27 05:41:26;;;;;;;2.50;2.30;;;-3.20;1.40;;;-2.71;100.00;96274.08;647109;216;31556;-75
2022/01/27 05:44:08;;;;;;;2.30;1.45;;;-3.20;1.40;;;-2.64;100.00;96283.77;619957;222;31887;-75
2022/01/27 05:46:50;;;;;;;1.60;1.35;;;-3.20;1.40;;;-2.70;100.00;96279.05;646490;216;31578;-75
2022/01/27 05:49:31;;;;;;;2.60;1.65;;;-3.30;1.40;;;-2.69;100.00;96277.66;647079;216;31585;-75
2022/01/27 05:52:13;;;;;;;5.12;2.20;;;-3.30;1.40;;;-2.71;100.00;96274.91;647291;213;32218;-75
2022/01/27 05:54:55;;;;;;;6.43;1.83;;;-3.20;1.40;;;-2.70;100.00;96281.34;647970;216;31567;-76
2022/01/27 05:57:39;;;;;;;5.12;2.53;;;-3.30;1.40;;;-2.70;100.00;96286.38;646771;216;31808;-74
2022/01/27 06:00:27;;;;;;;2.40;2.30;;;-3.30;1.40;;;-2.67;100.00;96297.27;647351;216;32765;-76
2022/01/27 06:03:10;;;;;;;2.83;1.83;;;-3.40;1.40;;;-2.69;100.00;96291.44;645321;216;32127;-75
2022/01/27 06:05:52;;;;;;;2.70;2.50;;;-3.40;1.40;;;-2.72;100.00;96291.69;646026;212;31571;-74
2022/01/27 06:08:36;;;;;;;3.95;1.62;;;-3.40;1.40;;;-2.69;100.00;96288.25;646964;216;31543;-75
2022/01/27 06:11:18;;;;;;;3.33;2.95;;;-3.30;1.40;;;-2.67;100.00;96284.18;618679;226;32121;-76
2022/01/27 06:16:34;;;;;;;2.75;1.95;;;-3.20;1.40;;;-2.71;100.00;96279.05;623095;226;32030;-75
2022/01/27 06:19:16;;;;;;;3.30;1.60;;;-3.20;1.40;;;-2.72;100.00;96283.48;646886;212;31617;-75
2022/01/27 06:22:02;;;;;;;2.40;2.20;;;-3.30;1.40;;;-2.70;100.00;96282.45;646857;212;31958;-77
2022/01/27 06:25:01;;;;;;;2.50;2.30;;;-3.30;1.40;;;-2.76;100.00;96282.23;646547;212;31773;-75
2022/01/27 06:27:48;;;;;;;2.90;1.80;;;-3.30;1.40;;;-2.79;100.00;96276.25;647524;216;31597;-75
2022/01/27 06:30:34;;;;;;;9.75;2.20;;;-3.30;1.40;;;-2.78;100.00;96274.37;646280;216;31571;-76
2022/01/27 06:35:52;;;;;;;3.03;1.60;;;-3.50;1.40;;;-2.91;100.00;96270.63;647600;216;31569;-75
2022/01/27 06:38:33;;;;;;;2.80;2.55;;;-3.60;1.40;;;-2.88;100.00;96270.83;647733;216;31755;-76
2022/01/27 06:41:22;;;;;;;3.35;1.73;;;-3.40;1.40;;;-2.87;100.00;96268.44;646530;216;31517;-76
2022/01/27 06:46:41;;;;;;;1.80;1.70;;;-3.30;1.40;;;-2.88;100.00;96269.75;647721;216;31587;-75
2022/01/27 06:49:22;;;;;;;2.50;2.30;;;-3.50;1.40;;;-2.87;100.00;96272.55;646912;212;33310;-76
2022/01/27 06:52:10;;;;;;;2.70;2.25;;;-3.40;1.40;;;-2.86;100.00;96273.19;647295;216;31652;-76
2022/01/27 06:54:58;;;;;;;5.00;3.90;;;-3.40;1.40;;;-2.89;100.00;96273.82;646548;212;32243;-76
2022/01/27 06:57:46;;;;;;;1.65;1.30;;;-3.40;1.40;;;-2.86;100.00;96272.55;616484;224;32004;-76
2022/01/27 07:00:27;;;;;;;3.50;2.28;;;-3.50;1.40;;;-2.88;100.00;96265.67;646737;216;31557;-74
2022/01/27 07:03:15;;;;;;;3.60;1.90;;;-3.60;1.40;;;-2.91;100.00;96266.53;647331;212;31700;-75
2022/01/27 07:05:58;;;;;;;2.70;2.60;;;-3.40;1.40;;;-2.87;100.00;96268.48;640347;215;31580;-74
2022/01/27 07:08:40;;;;;;;3.60;2.40;;;-3.30;1.40;;;-2.82;100.00;96268.38;646912;212;31532;-76
2022/01/27 07:11:22;;;;;;;1.62;1.52;;;-3.30;1.40;;;-2.73;100.00;96266.51;647812;212;31539;-76
2022/01/27 07:14:04;;;;;;;4.47;2.67;;;-3.30;1.40;;;-2.64;100.00;96265.68;619137;222;31879;-74
2022/01/27 07:16:45;;;;;;;4.85;2.20;;;-3.10;1.40;;;-2.60;100.00;96262.36;646810;212;31571;-75
2022/01/27 07:19:27;;;;;;;5.60;3.00;;;-3.10;1.40;;;-2.61;100.00;96259.06;635712;220;31922;-76
2022/01/27 07:22:12;;;;;;;2.30;1.83;;;-3.00;1.40;;;-2.54;100.00;96263.41;617774;226;31882;-76
2022/01/27 07:24:54;;;;;;;5.15;1.73;;;-3.00;1.40;;;-2.47;100.00;96259.78;645832;212;31608;-74
2022/01/27 07:27:35;;;;;;;5.35;1.85;;;-2.90;1.40;;;-2.40;100.00;96254.99;645953;216;31580;-77
2022/01/27 07:30:17;;;;;;;3.90;2.00;;;-2.90;1.40;;;-2.40;100.00;96259.30;646163;212;31564;-76
2022/01/27 07:35:57;;;;;;;2.65;2.45;;;-2.80;1.40;;;-2.23;100.00;96257.83;645978;216;31726;-74
2022/01/27 07:38:39;;;;;;;2.33;2.12;;;-2.80;1.40;;;-2.25;100.00;96258.67;647189;212;31645;-74
2022/01/27 07:41:21;;;;;;;5.75;3.30;;;-2.80;1.40;;;-2.14;100.00;96254.31;619028;226;31977;-76
2022/01/27 07:44:08;;;;;;;4.45;2.10;;;-2.80;1.40;;;-2.02;100.00;96251.95;619296;226;32674;-79
2022/01/27 07:46:56;;;;;;;3.60;2.45;;;-2.70;1.40;;;-1.97;100.00;96257.74;647633;216;31773;-76
2022/01/27 07:49:37;;;;;;;5.73;3.57;;;-2.70;1.40;;;-1.87;100.00;96252.93;645293;216;32199;-76
2022/01/27 07:52:20;;;;;;;3.30;2.30;;;-2.60;1.40;;;-1.74;100.00;96258.87;618846;222;35022;-76
2022/01/27 07:55:01;;;;;;;3.87;3.42;;;-2.50;1.40;;;-1.58;100.00;96257.66;619552;226;32090;-77
2022/01/27 07:57:43;;;;;;;5.57;2.33;;;-2.30;1.40;;;-1.48;100.00;96260.14;647308;212;31769;-76
2022/01/27 08:00:24;;;;;;;2.30;2.10;;;-2.20;1.40;;;-1.35;100.00;96256.09;620136;226;32317;-74
2022/01/27 08:03:06;;;;;;;3.60;2.33;;;-2.10;1.40;;;-1.24;100.00;96255.73;646474;216;31635;-76
2022/01/27 08:05:48;;;;;;;4.05;2.05;;;-1.90;1.40;;;-1.11;100.00;96258.09;646565;216;31585;-73
2022/01/27 08:08:29;;;;;;;1.98;1.80;;;-1.70;1.40;;;-0.96;100.00;96258.41;646414;216;31741;-76
2022/01/27 08:11:14;;;;;;;3.40;2.25;;;-1.40;1.40;;;-0.62;100.00;96259.34;646471;212;31604;-77
2022/01/27 08:13:56;;;;;;;4.28;1.70;;;-1.00;1.40;;;-0.14;100.00;96255.95;646378;216;31525;-77
2022/01/27 08:16:37;;;;;;;3.00;1.65;;;-0.50;1.40;;;0.24;100.00;96255.77;647608;216;31610;-77
2022/01/27 08:19:22;;;;;;;1.70;1.60;;;-0.10;1.40;;;0.59;100.00;96255.08;646217;216;42211;-77
2022/01/27 08:22:04;;;;;;;1.87;1.50;;;0.30;1.40;;;1.03;100.00;96257.98;647284;212;31552;-77
2022/01/27 08:24:49;;;;;;;2.40;1.98;;;0.80;1.40;;;1.38;100.00;96253.03;645805;212;42203;-77
2022/01/27 08:27:33;;;;;;;1.65;1.55;;;1.20;1.40;;;1.71;100.00;96250.72;618291;222;32114;-74
2022/01/27 08:30:19;;;;;;;1.65;1.35;;;1.40;1.40;;;1.85;100.00;96247.66;619099;226;42540;-75
2022/01/27 08:33:04;;;;;;;2.87;2.65;;;1.50;1.40;;;1.81;100.00;96244.23;646040;212;32152;-75
2022/01/27 08:35:52;;;;;;;1.80;1.60;;;1.40;1.40;;;1.82;100.00;96243.19;647024;216;31569;-74
2022/01/27 08:38:37;;;;;;;2.30;2.10;;;1.40;1.40;;;1.93;100.00;96243.28;648399;216;42391;-80
2022/01/27 08:41:19;;;;;;;2.97;2.62;;;1.40;1.40;;;1.95;100.00;96246.33;631503;221;31908;-77
2022/01/27 08:44:03;;;;;;;2.50;2.30;;;1.40;1.40;;;2.06;100.00;96250.91;618594;222;31966;-77
2022/01/27 08:46:44;;;;;;;1.90;1.63;;;1.50;1.40;;;2.11;100.00;96249.78;646899;216;42202;-74
2022/01/27 08:49:27;;;;;;;3.85;2.40;;;1.60;1.40;;;2.11;100.00;96250.48;645847;212;31889;-76
2022/01/27 08:52:08;;;;;;;2.10;1.90;;;1.60;1.40;;;2.21;100.00;96252.97;647992;212;31601;-77
2022/01/27 08:54:49;;;;;;;2.60;1.65;;;1.80;1.40;;;2.49;100.00;96249.73;647391;216;31573;-77
2022/01/27 08:57:34;;;;;;;2.62;2.33;;;2.00;1.40;;;2.59;100.00;96249.39;646606;212;31551;-75
2022/01/27 09:00:19;;;;;;;3.40;2.08;;;2.30;1.40;;;2.75;100.00;96243.05;619072;222;31911;-76
2022/01/27 09:02:58;;;;;;;3.25;2.20;;;2.50;1.40;;;3.08;100.00;96250.66;619634;222;32099;-74
2022/01/27 09:05:40;;;;;;;2.60;2.10;;;2.80;1.40;;;3.33;100.00;96250.53;647042;216;31648;-77
2022/01/27 09:08:21;;;;;;;2.17;1.80;;;3.00;1.40;;;3.87;100.00;96249.22;619496;222;32221;-77
2022/01/27 09:11:03;;;;;;;3.10;1.60;;;3.60;1.40;;;4.45;100.00;96247.70;646144;212;42210;-77
2022/01/27 09:13:45;;;;;;;2.25;1.92;;;5.10;1.40;;;5.66;94.07;96240.09;646844;212;31542;-77
2022/01/27 09:16:28;;;;;;;2.45;1.75;;;6.60;1.40;;;6.58;86.64;96241.51;646407;216;31655;-74
2022/01/27 09:19:11;;;;;;;2.17;1.80;;;7.20;1.40;;;7.38;81.49;96235.27;647133;212;42178;-75
2022/01/27 09:21:54;;;;;;;2.15;1.83;;;7.30;1.40;;;7.87;78.39;96236.28;619181;226;32018;-75
2022/01/27 09:24:41;;;;;;;3.10;1.73;;;7.50;1.40;;;7.52;73.54;96234.97;646422;216;32108;-75
2022/01/27 09:27:19;;;;;;;2.83;1.80;;;6.80;1.40;;;7.67;71.46;96231.52;646955;212;31765;-74
2022/01/27 09:30:08;;;;;;;2.00;1.80;;;7.30;1.40;;;8.00;73.33;96229.91;648250;214;32194;-80
2022/01/27 09:35:51;;;;;;;2.10;1.80;;;6.60;1.40;;;7.16;73.07;96228.74;646786;216;31566;-74
2022/01/27 09:38:32;;;;;;;2.57;1.90;;;7.00;1.40;;;7.54;70.71;96228.17;619480;226;32021;-75
2022/01/27 09:41:19;;;;;;;1.60;1.37;;;7.60;1.40;;;7.94;67.16;96223.88;646505;216;31541;-75
2022/01/27 09:44:01;;;;;;;3.60;1.80;;;7.40;1.40;;;7.38;66.33;96229.45;645860;216;31602;-75
2022/01/27 09:46:45;;;;;;;1.57;1.40;;;7.90;1.40;;;8.92;64.88;96224.22;619999;226;31905;-74
2022/01/27 09:49:33;;;;;;;2.23;1.40;;;9.10;1.40;;;9.45;59.95;96222.42;646915;216;42123;-76
2022/01/27 09:52:07;;;;;;;2.90;2.00;;;9.70;1.40;;;10.48;56.91;96226.20;646769;216;31654;-75
2022/01/27 09:54:49;;;;;;;2.17;1.30;;;10.20;1.40;;;11.52;53.27;96223.34;647264;216;31660;-75
2022/01/27 09:57:33;;;;;;;1.52;1.20;;;10.20;1.40;;;11.03;49.77;96223.72;619810;222;31944;-80
2022/01/27 10:00:21;;;;;;;1.70;1.40;;;10.40;1.40;;;11.07;50.52;96221.45;646200;216;31753;-75
2022/01/27 10:03:03;;;;;;;1.83;1.35;;;10.30;1.40;;;11.34;49.19;96217.09;634480;220;31669;-75
2022/01/27 10:05:46;;;;;;;1.52;1.40;;;10.70;1.40;;;11.92;48.41;96211.28;646695;212;31529;-74
2022/01/27 10:08:27;;;;;;;1.60;1.20;;;11.00;1.40;;;11.38;47.43;96217.99;647202;216;31512;-76
2022/01/27 10:11:15;;;;;;;1.33;0.88;;;10.80;1.40;;;10.90;46.97;96204.23;619487;226;32465;-79
2022/01/27 10:14:18;;;;;;;1.30;0.93;;;10.50;1.40;;;11.31;47.38;96190.25;646039;212;31702;-74
2022/01/27 10:17:07;;;;;;;1.40;1.10;;;11.10;1.40;;;11.15;46.21;96187.27;619385;226;31843;-75
2022/01/27 10:19:57;;;;;;;1.25;0.70;;;11.20;1.40;;;11.84;46.17;96189.20;619698;226;31856;-74
2022/01/27 10:22:38;;;;;;;1.00;0.77;;;11.60;1.40;;;11.07;43.59;96186.39;647691;212;32022;-74
2022/01/27 10:25:21;;;;;;;1.48;1.10;;;10.90;1.40;;;11.89;44.14;96180.75;646423;212;31603;-74
2022/01/27 10:28:12;;;;;;;1.60;0.90;;;11.90;1.40;;;12.22;41.67;96185.19;646429;216;31562;-74
2022/01/27 10:30:46;;;;;;;2.05;1.10;;;11.60;1.40;;;12.32;42.03;96185.59;646254;216;31506;-75
2022/01/27 10:35:52;;;;;;;2.17;0.80;;;12.20;1.40;;;13.50;40.91;96185.73;646242;216;31545;-74
2022/01/27 10:38:33;;;;;;;1.70;1.10;;;12.50;1.40;;;13.36;39.73;96183.06;647377;216;31517;-75
2022/01/27 10:41:15;;;;;;;1.90;1.20;;;12.20;1.40;;;13.51;40.94;96182.23;645823;216;31508;-75
2022/01/27 10:44:13;;;;;;;1.67;1.27;;;12.80;1.40;;;14.19;38.89;96176.90;645811;212;31508;-75
2022/01/27 10:49:34;;;;;;;1.77;1.30;;;12.60;1.40;;;14.33;37.35;96178.39;618393;225;31893;-75
2022/01/27 10:52:21;;;;;;;1.80;1.15;;;13.30;1.40;;;14.15;38.77;96176.69;646741;212;31680;-75
2022/01/27 10:55:10;;;;;;;1.40;1.00;;;12.30;1.40;;;13.40;38.19;96186.75;646399;216;31550;-75
2022/01/27 10:57:51;;;;;;;1.42;1.08;;;12.30;1.40;;;13.83;37.03;96172.58;646883;212;31546;-74
2022/01/27 11:03:07;;;;;;;0.90;0.60;;;11.60;1.40;;;12.97;38.48;96183.59;647825;216;31539;-75
2022/01/27 11:05:50;;;;;;;2.30;1.20;;;12.10;1.40;;;12.89;38.89;96193.53;646465;212;31523;-75
2022/01/27 11:08:31;;;;;;;1.45;1.08;;;11.60;1.40;;;13.57;39.03;96174.19;647537;216;31690;-74
2022/01/27 11:11:13;;;;;;;1.50;1.20;;;12.70;1.40;;;13.43;38.05;96175.80;646475;212;31580;-75
2022/01/27 11:13:58;;;;;;;1.60;1.10;;;12.10;1.40;;;13.75;37.63;96164.81;648617;212;31611;-78
2022/01/27 11:16:45;;;;;;;1.37;1.10;;;12.90;1.40;;;13.97;36.47;96165.03;619196;226;32006;-74
2022/01/27 11:22:42;;;;;;;2.33;1.00;;;11.50;1.40;;;12.23;39.18;96159.19;646993;216;31495;-78
2022/01/27 11:28:10;;;;;;;1.10;0.70;;;10.90;1.40;;;11.77;40.24;96159.83;647388;212;31492;-74
2022/01/27 11:31:15;;;;;;;1.08;0.90;;;10.90;1.40;;;11.56;40.69;96142.98;618004;225;32127;-74
2022/01/27 11:35:52;;;;;;;1.70;1.10;;;11.40;1.40;;;12.13;40.32;96137.01;618701;226;31884;-74
2022/01/27 11:38:34;;;;;;;0.90;0.70;;;12.00;1.40;;;12.80;38.30;96131.63;646608;216;31536;-76
2022/01/27 11:41:33;;;;;;;3.45;1.10;;;11.90;1.40;;;12.32;38.82;96131.66;619118;226;32398;-74
2022/01/27 11:44:23;;;;;;;2.62;0.90;;;11.50;1.40;;;11.98;39.55;96135.98;647218;212;31654;-75
2022/01/27 11:47:20;;;;;;;1.60;1.08;;;11.10;1.40;;;11.75;39.38;96145.78;647499;216;31485;-78
2022/01/27 11:50:07;;;;;;;2.10;1.27;;;10.90;1.40;;;11.43;39.52;96143.80;647302;216;31497;-75
2022/01/27 11:52:50;;;;;;;1.80;0.98;;;10.70;1.40;;;11.13;40.54;96133.66;647237;216;32085;-78
2022/01/27 11:55:44;;;;;;;1.65;0.98;;;10.90;1.40;;;11.83;40.97;96125.32;646319;216;31527;-75
2022/01/27 11:58:25;;;;;;;2.80;1.30;;;11.80;1.40;;;11.98;39.79;96125.16;645678;212;31644;-75
2022/01/27 12:01:14;;;;;;;1.87;1.30;;;11.40;1.40;;;11.84;41.06;96128.55;648248;216;31571;-79
2022/01/27 12:04:08;;;;;;;2.15;1.10;;;11.60;1.40;;;11.48;41.26;96119.23;645664;212;31505;-75
2022/01/27 12:07:04;;;;;;;1.23;0.88;;;10.60;1.40;;;10.87;41.19;96109.23;641156;215;31710;-75
2022/01/27 12:09:49;;;;;;;1.70;1.02;;;10.10;1.40;;;11.05;43.47;96109.14;618691;226;31929;-75
2022/01/27 12:12:33;;;;;;;2.70;1.27;;;10.80;1.40;;;11.50;42.07;96108.39;619199;226;31895;-75
2022/01/27 12:15:13;;;;;;;3.30;1.30;;;10.50;1.40;;;11.05;43.74;96117.87;619063;226;42526;-75
2022/01/27 12:17:56;;;;;;;1.70;1.30;;;10.40;1.40;;;11.40;41.74;96108.22;646731;216;42747;-74
2022/01/27 12:20:44;;;;;;;1.87;0.80;;;10.40;1.40;;;11.74;40.76;96106.03;647015;216;42606;-79
2022/01/27 12:23:32;;;;;;;2.12;1.45;;;10.80;1.40;;;10.98;41.61;96112.76;647108;216;42332;-74
2022/01/27 12:26:14;;;;;;;1.20;0.80;;;10.30;1.40;;;10.96;42.24;96109.66;648536;212;31688;-76
2022/01/27 12:28:56;;;;;;;1.30;1.00;;;10.40;1.40;;;11.23;41.99;96107.39;647078;216;42249;-75
2022/01/27 12:31:39;;;;;;;2.40;1.50;;;10.70;1.40;;;10.61;42.17;96112.92;648028;216;41121;-75
2022/01/27 12:35:53;;;;;;;1.25;1.15;;;10.20;1.40;;;10.93;44.95;96107.84;646674;216;31596;-76
2022/01/27 12:38:37;;;;;;;2.50;1.40;;;10.10;1.40;;;11.21;45.09;96113.13;619894;226;33129;-76
2022/01/27 12:41:19;;;;;;;2.25;1.60;;;10.60;1.40;;;10.71;42.74;96109.23;647802;216;31585;-74
2022/01/27 12:44:07;;;;;;;5.95;1.48;;;10.30;1.40;;;10.50;43.20;96105.97;646890;212;31514;-76
2022/01/27 12:47:18;;;;;;;2.50;1.60;;;9.50;1.40;;;10.31;43.93;96112.80;646983;216;31753;-75
2022/01/27 12:50:06;;;;;;;2.05;1.50;;;9.90;1.40;;;10.28;44.03;96119.06;645919;216;31554;-75